Time;durP1;ratioP1;P1;durP2;ratioP2;P2;SDS_P1;SDS_P2;PMS_P1;PMS_P2;Temp;Humidity;BMP_temperature;BMP_pressure;BME280_temperature;BME280_humidity;BME280_pressure;Samples;Min_cycle;Max_cycle;Signal;HPM_P1;HPM_P2
2023/01/10 00:02:01;;;;;;;14.30;2.90;;;;;;;6.40;71.38;100981.68;107547;1254;96580;-61
2023/01/10 00:04:29;;;;;;;12.90;2.10;;;;;;;6.41;71.34;100974.65;107523;1254;110554;-61
2023/01/10 00:06:58;;;;;;;7.80;1.90;;;;;;;6.42;71.30;100974.79;107531;1254;109489;-64
2023/01/10 00:09:26;;;;;;;9.60;2.80;;;;;;;6.41;71.33;100977.91;107526;1254;108595;-61
2023/01/10 00:14:41;;;;;;;8.40;1.80;;;;;;;6.42;71.26;100984.42;107524;1256;97034;-60
2023/01/10 00:17:10;;;;;;;8.60;2.90;;;;;;;6.44;71.13;100977.69;107568;1256;110840;-61
2023/01/10 00:19:38;;;;;;;13.10;2.90;;;;;;;6.47;70.99;100981.97;107539;1254;109871;-61
2023/01/10 00:22:07;;;;;;;9.50;2.70;;;;;;;6.48;70.92;100983.16;107522;1254;108183;-60
2023/01/10 00:24:36;;;;;;;6.80;2.00;;;;;;;6.49;70.69;100977.20;107480;1256;97019;-60
2023/01/10 00:27:04;;;;;;;11.50;2.50;;;;;;;6.48;70.89;100981.02;107519;1253;96584;-61
2023/01/10 00:29:34;;;;;;;12.30;2.00;;;;;;;6.49;70.89;100981.48;107515;1253;110481;-62
2023/01/10 00:32:02;;;;;;;15.60;2.30;;;;;;;6.50;70.75;100982.98;107527;1254;109700;-61
2023/01/10 00:34:31;;;;;;;11.80;2.20;;;;;;;6.50;70.81;100981.53;107516;1252;107433;-61
2023/01/10 00:36:59;;;;;;;14.50;2.40;;;;;;;6.51;70.84;100982.90;107510;1252;96565;-59
2023/01/10 00:39:28;;;;;;;10.60;2.50;;;;;;;6.53;70.68;100981.33;107523;1254;96728;-61
2023/01/10 00:44:45;;;;;;;8.40;1.80;;;;;;;6.55;70.48;100988.69;107467;1254;109899;-60
2023/01/10 00:47:14;;;;;;;14.10;2.80;;;;;;;6.56;70.47;100989.68;107494;1254;108549;-61
2023/01/10 00:49:42;;;;;;;16.50;1.90;;;;;;;6.55;70.66;100989.40;107514;1253;96638;-60
2023/01/10 00:52:10;;;;;;;15.80;2.10;;;;;;;6.55;70.58;100990.64;107564;1256;96370;-60
2023/01/10 00:54:39;;;;;;;9.90;2.50;;;;;;;6.56;70.53;100983.62;107543;1254;110687;-60
2023/01/10 00:57:07;;;;;;;8.80;1.90;;;;;;;6.56;70.78;100978.66;107562;1253;110815;-61
2023/01/10 00:59:36;;;;;;;8.20;2.40;;;;;;;6.55;70.69;100979.43;107569;1254;108296;-60
2023/01/10 01:02:04;;;;;;;14.40;2.40;;;;;;;6.54;70.70;100975.41;107536;1256;96584;-60
2023/01/10 01:04:34;;;;;;;15.00;2.30;;;;;;;6.54;70.87;100979.30;107609;1254;96621;-61
2023/01/10 01:07:02;;;;;;;7.50;2.20;;;;;;;6.55;70.89;100974.64;107618;1254;109833;-61
2023/01/10 01:09:31;;;;;;;8.60;2.40;;;;;;;6.56;70.71;100975.48;107530;1253;109890;-61
2023/01/10 01:11:59;;;;;;;7.10;1.90;;;;;;;6.55;70.68;100971.44;107550;1254;108707;-61
2023/01/10 01:14:27;;;;;;;14.10;2.30;;;;;;;6.54;70.95;100965.39;107545;1253;96498;-61
2023/01/10 01:16:56;;;;;;;11.30;2.90;;;;;;;6.54;70.95;100963.79;107678;1254;97007;-61
2023/01/10 01:19:26;;;;;;;22.30;4.20;;;;;;;6.54;71.14;100963.48;107574;1253;110519;-60
2023/01/10 01:21:54;;;;;;;10.10;2.70;;;;;;;6.54;71.08;100955.14;107567;1253;109933;-60
2023/01/10 01:24:23;;;;;;;11.10;2.40;;;;;;;6.53;71.21;100955.70;107570;1256;108326;-60
2023/01/10 01:26:51;;;;;;;15.70;2.60;;;;;;;6.54;71.17;100951.38;107652;1252;96445;-60
2023/01/10 01:29:20;;;;;;;13.40;2.50;;;;;;;6.55;71.05;100947.39;107587;1253;97098;-60
2023/01/10 01:31:50;;;;;;;15.30;2.90;;;;;;;6.55;71.03;100946.13;107652;1254;110882;-60
2023/01/10 01:34:19;;;;;;;9.70;3.30;;;;;;;6.56;70.94;100948.87;107676;1254;109851;-60
2023/01/10 01:36:50;;;;;;;13.10;2.40;;;;;;;6.57;70.84;100946.83;107576;1254;108892;-60
2023/01/10 01:39:18;;;;;;;20.70;3.70;;;;;;;6.56;70.85;100939.08;107526;1256;96493;-61
2023/01/10 01:41:56;;;;;;;13.90;2.20;;;;;;;6.56;70.99;100942.27;107578;1254;96481;-60
2023/01/10 01:44:34;;;;;;;18.70;2.50;;;;;;;6.56;71.08;100930.18;107578;1254;111705;-59
2023/01/10 01:47:13;;;;;;;12.00;2.50;;;;;;;6.55;71.10;100923.33;107617;1254;110284;-59
2023/01/10 01:49:44;;;;;;;14.40;2.70;;;;;;;6.54;71.11;100919.13;107598;1256;109491;-60
2023/01/10 01:52:24;;;;;;;9.90;2.10;;;;;;;6.51;71.24;100920.58;107641;1254;96484;-60
2023/01/10 01:54:57;;;;;;;12.80;2.70;;;;;;;6.48;71.23;100911.85;107570;1252;97014;-60
2023/01/10 01:57:29;;;;;;;11.80;2.10;;;;;;;6.46;71.34;100913.95;107623;1255;109513;-59
2023/01/10 02:00:00;;;;;;;9.60;3.30;;;;;;;6.44;71.42;100909.80;107660;1255;109983;-60
2023/01/10 02:02:55;;;;;;;12.40;2.60;;;;;;;6.40;71.65;100902.20;107546;1256;108671;-60
2023/01/10 02:05:33;;;;;;;15.70;3.10;;;;;;;6.37;71.83;100899.74;107656;1254;96493;-60
2023/01/10 02:08:02;;;;;;;12.30;2.40;;;;;;;6.36;72.10;100897.19;107595;1256;97174;-59
2023/01/10 02:10:54;;;;;;;16.00;3.20;;;;;;;6.35;72.09;100901.90;107652;1254;111135;-59
2023/01/10 02:13:24;;;;;;;20.10;3.60;;;;;;;6.33;72.22;100901.64;107643;1254;110179;-59
2023/01/10 02:15:53;;;;;;;12.60;3.00;;;;;;;6.33;72.25;100907.54;107541;1253;108702;-61
2023/01/10 02:18:23;;;;;;;14.40;4.60;;;;;;;6.33;72.42;100903.63;107514;1256;96522;-60
2023/01/10 02:21:11;;;;;;;21.10;5.20;;;;;;;6.32;72.34;100896.92;107598;1254;97057;-60
2023/01/10 02:23:53;;;;;;;17.80;4.70;;;;;;;6.30;72.73;100895.09;107597;1255;111143;-59
2023/01/10 02:26:30;;;;;;;19.10;3.70;;;;;;;6.28;72.73;100890.27;107628;1255;109803;-60
2023/01/10 02:29:07;;;;;;;14.80;4.20;;;;;;;6.27;72.84;100886.19;107580;1256;109567;-60
2023/01/10 02:31:58;;;;;;;15.90;3.70;;;;;;;6.28;72.90;100887.91;107583;1254;96486;-60
2023/01/10 02:34:38;;;;;;;15.70;2.60;;;;;;;6.30;72.95;100886.36;107525;1254;96572;-60
2023/01/10 02:37:32;;;;;;;15.00;3.30;;;;;;;6.31;73.05;100881.86;107561;1252;111015;-61
2023/01/10 02:40:06;;;;;;;5.70;2.50;;;;;;;6.30;73.14;100881.25;107560;1254;110064;-59
2023/01/10 02:42:57;;;;;;;11.50;2.70;;;;;;;6.29;73.22;100879.48;107616;1254;108307;-60
2023/01/10 02:45:28;;;;;;;12.30;2.70;;;;;;;6.29;73.26;100877.36;107626;1254;96473;-60
2023/01/10 02:47:57;;;;;;;14.20;2.30;;;;;;;6.31;73.32;100874.23;107613;1254;96483;-60
2023/01/10 02:50:34;;;;;;;10.50;3.50;;;;;;;6.32;73.27;100875.75;107648;1254;110210;-60
2023/01/10 02:53:10;;;;;;;14.30;2.60;;;;;;;6.32;73.34;100873.92;107633;1254;109222;-61
2023/01/10 02:56:04;;;;;;;13.40;2.60;;;;;;;6.34;73.42;100868.64;107607;1254;108123;-60
2023/01/10 02:58:46;;;;;;;10.80;2.70;;;;;;;6.35;73.49;100861.46;107500;1254;96473;-61
2023/01/10 03:01:26;;;;;;;9.10;3.90;;;;;;;6.34;73.53;100866.31;107549;1253;96360;-60
2023/01/10 03:04:14;;;;;;;17.00;2.40;;;;;;;6.33;73.71;100859.83;107580;1253;111264;-61
2023/01/10 03:07:15;;;;;;;11.40;1.90;;;;;;;6.35;73.66;100859.52;107656;1255;109245;-61
2023/01/10 03:10:02;;;;;;;8.60;2.30;;;;;;;6.33;73.73;100865.70;107546;1256;108217;-60
2023/01/10 03:12:41;;;;;;;10.80;3.20;;;;;;;6.34;73.68;100863.48;107576;1254;96488;-61
2023/01/10 03:15:14;;;;;;;15.40;2.90;;;;;;;6.34;73.64;100862.23;107568;1256;96424;-61
2023/01/10 03:17:49;;;;;;;12.30;2.60;;;;;;;6.35;73.72;100861.08;107567;1255;111623;-62
2023/01/10 03:20:19;;;;;;;13.40;3.00;;;;;;;6.35;73.70;100861.44;107581;1254;109729;-60
2023/01/10 03:22:51;;;;;;;17.70;3.70;;;;;;;6.35;73.74;100857.55;107613;1254;108077;-61
2023/01/10 03:25:23;;;;;;;14.80;3.10;;;;;;;6.36;73.61;100862.96;107573;1254;96462;-58
2023/01/10 03:28:03;;;;;;;8.40;3.30;;;;;;;6.38;73.65;100865.73;107495;1254;97038;-61
2023/01/10 03:30:43;;;;;;;9.50;2.50;;;;;;;6.39;73.59;100864.37;107564;1254;109683;-59
2023/01/10 03:33:16;;;;;;;10.70;2.70;;;;;;;6.39;73.59;100877.71;107540;1253;109670;-60
2023/01/10 03:35:59;;;;;;;11.70;2.80;;;;;;;6.39;73.66;100872.36;107520;1253;108687;-60
2023/01/10 03:38:51;;;;;;;19.70;3.10;;;;;;;6.38;73.73;100871.90;107533;1256;96339;-60
2023/01/10 03:41:29;;;;;;;13.40;3.00;;;;;;;6.39;73.84;100864.77;107285;1252;97016;-61
2023/01/10 03:47:34;;;;;;;11.50;2.30;;;;;;;6.38;73.77;100860.55;107513;1257;110038;-60
2023/01/10 03:50:06;;;;;;;11.40;2.60;;;;;;;6.36;73.86;100852.68;107537;1254;108287;-60
2023/01/10 03:52:35;;;;;;;13.00;3.20;;;;;;;6.34;73.87;100855.27;107558;1254;96571;-61
2023/01/10 03:55:06;;;;;;;11.50;3.00;;;;;;;6.34;74.05;100855.26;107595;1256;96489;-61
2023/01/10 03:57:34;;;;;;;11.70;2.80;;;;;;;6.35;73.86;100852.52;107664;1255;110596;-60
2023/01/10 04:00:03;;;;;;;14.50;2.90;;;;;;;6.35;73.99;100848.61;107642;1254;108812;-61
2023/01/10 04:02:32;;;;;;;16.90;3.40;;;;;;;6.35;74.17;100846.69;107617;1255;107828;-61
2023/01/10 04:05:00;;;;;;;11.20;2.00;;;;;;;6.32;74.47;100843.70;107621;1256;96295;-59
2023/01/10 04:07:29;;;;;;;11.70;3.00;;;;;;;6.30;74.60;100842.40;107606;1253;96371;-60
2023/01/10 04:09:57;;;;;;;14.40;3.50;;;;;;;6.28;74.77;100842.34;107537;1254;110355;-59
2023/01/10 04:12:26;;;;;;;21.40;6.10;;;;;;;6.26;74.82;100839.77;107607;1256;110252;-60
2023/01/10 04:14:54;;;;;;;13.30;3.10;;;;;;;6.25;74.85;100836.43;107558;1254;107652;-60
2023/01/10 04:17:23;;;;;;;12.20;2.70;;;;;;;6.25;75.13;100834.13;107615;1257;96492;-60
2023/01/10 04:19:51;;;;;;;15.20;3.60;;;;;;;6.23;75.42;100825.92;107539;1254;97177;-59
2023/01/10 04:22:20;;;;;;;11.70;3.10;;;;;;;6.21;75.69;100826.77;107683;1254;111172;-61
2023/01/10 04:24:50;;;;;;;17.00;3.60;;;;;;;6.19;75.70;100826.89;107576;1255;110928;-59
2023/01/10 04:27:19;;;;;;;12.10;2.90;;;;;;;6.17;75.92;100835.06;107602;1256;108650;-62
2023/01/10 04:29:47;;;;;;;15.90;2.30;;;;;;;6.14;76.20;100833.33;107551;1257;96363;-60
2023/01/10 04:32:16;;;;;;;15.40;3.70;;;;;;;6.09;76.40;100841.67;107598;1254;96370;-61
2023/01/10 04:34:44;;;;;;;15.50;4.20;;;;;;;6.06;76.47;100836.86;107599;1254;110567;-61
2023/01/10 04:37:13;;;;;;;11.00;3.40;;;;;;;6.05;76.83;100832.88;107588;1254;109241;-60
2023/01/10 04:39:42;;;;;;;19.90;3.60;;;;;;;6.01;77.19;100833.13;107514;1254;108551;-60
2023/01/10 04:42:10;;;;;;;18.70;3.80;;;;;;;6.00;77.85;100837.48;107610;1254;96474;-60
2023/01/10 04:44:38;;;;;;;11.70;2.90;;;;;;;5.97;78.59;100838.52;107579;1254;96569;-61
2023/01/10 04:47:07;;;;;;;11.40;2.90;;;;;;;5.93;78.66;100841.80;107649;1257;110472;-60
2023/01/10 04:49:35;;;;;;;13.70;4.10;;;;;;;5.91;78.73;100837.55;107610;1255;108772;-60
2023/01/10 04:52:03;;;;;;;19.30;4.40;;;;;;;5.87;79.36;100839.22;107538;1255;107626;-60
2023/01/10 04:54:32;;;;;;;24.90;4.50;;;;;;;5.83;79.59;100841.42;107602;1256;96510;-61
2023/01/10 04:57:00;;;;;;;15.70;3.80;;;;;;;5.81;80.16;100842.10;107625;1254;96491;-60
2023/01/10 04:59:29;;;;;;;12.10;3.20;;;;;;;5.78;80.22;100839.64;107609;1256;110802;-61
2023/01/10 05:01:57;;;;;;;16.20;3.50;;;;;;;5.78;80.24;100842.50;107637;1254;110734;-60
2023/01/10 05:04:27;;;;;;;14.50;3.20;;;;;;;5.77;80.24;100843.39;107652;1257;108472;-62
2023/01/10 05:06:55;;;;;;;15.40;3.60;;;;;;;5.78;80.32;100842.66;107572;1254;97948;-61
2023/01/10 05:09:23;;;;;;;16.50;3.80;;;;;;;5.78;80.35;100844.39;107584;1254;98351;-60
2023/01/10 05:11:52;;;;;;;14.90;3.80;;;;;;;5.78;80.36;100847.48;107624;1255;112281;-63
2023/01/10 05:14:20;;;;;;;12.60;3.60;;;;;;;5.79;80.19;100851.67;107667;1256;109633;-60
2023/01/10 05:16:49;;;;;;;21.60;4.80;;;;;;;5.81;80.30;100850.48;107570;1254;107651;-60
2023/01/10 05:19:17;;;;;;;26.00;5.40;;;;;;;5.83;80.26;100853.77;107569;1254;97838;-62
2023/01/10 05:21:46;;;;;;;13.00;4.50;;;;;;;5.85;80.25;100853.23;107592;1254;97938;-61
2023/01/10 05:24:14;;;;;;;22.70;4.90;;;;;;;5.86;80.27;100849.77;107607;1256;110707;-60
2023/01/10 05:26:43;;;;;;;19.60;4.70;;;;;;;5.88;80.08;100854.60;107589;1254;109823;-61
2023/01/10 05:29:13;;;;;;;15.70;3.30;;;;;;;5.90;80.16;100854.13;107502;1257;108244;-62
2023/01/10 05:31:41;;;;;;;16.00;3.70;;;;;;;5.91;80.10;100855.48;107503;1254;97848;-60
2023/01/10 05:34:11;;;;;;;13.00;4.20;;;;;;;5.92;80.13;100858.06;107557;1254;97736;-60
2023/01/10 05:36:40;;;;;;;16.70;4.50;;;;;;;5.94;79.96;100855.48;107619;1254;111251;-59
2023/01/10 05:39:08;;;;;;;14.80;3.80;;;;;;;5.95;79.92;100859.12;107487;1257;108759;-60
2023/01/10 05:41:37;;;;;;;16.40;3.50;;;;;;;5.96;80.04;100856.57;107526;1254;107715;-61
2023/01/10 05:44:05;;;;;;;12.70;3.90;;;;;;;5.96;79.83;100859.27;107542;1254;97858;-60
2023/01/10 05:46:34;;;;;;;10.50;3.00;;;;;;;5.95;80.12;100856.63;107532;1254;98377;-61
2023/01/10 05:49:02;;;;;;;15.10;3.20;;;;;;;5.94;79.96;100856.91;107542;1254;110743;-62
2023/01/10 05:51:30;;;;;;;9.40;2.70;;;;;;;5.93;80.19;100853.95;107520;1254;109770;-61
2023/01/10 05:53:59;;;;;;;13.00;2.90;;;;;;;5.92;80.43;100860.95;107532;1256;108167;-61
2023/01/10 05:56:28;;;;;;;15.20;3.00;;;;;;;5.92;80.29;100861.48;107544;1254;97855;-60
2023/01/10 05:58:56;;;;;;;12.00;2.60;;;;;;;5.91;80.58;100858.38;107515;1254;97870;-60
2023/01/10 06:01:34;;;;;;;15.40;3.50;;;;;;;5.87;80.80;100859.16;107537;1254;112562;-60
2023/01/10 06:04:03;;;;;;;14.40;3.00;;;;;;;5.86;80.95;100856.55;107498;1254;109426;-61
2023/01/10 06:06:33;;;;;;;14.10;3.10;;;;;;;5.82;81.45;100860.55;107546;1256;108081;-60
2023/01/10 06:09:01;;;;;;;16.20;3.10;;;;;;;5.80;81.57;100865.85;107479;1254;97839;-60
2023/01/10 06:11:30;;;;;;;15.80;2.90;;;;;;;5.80;81.73;100865.13;107515;1255;99066;-61
2023/01/10 06:13:58;;;;;;;13.50;3.10;;;;;;;5.77;82.17;100864.06;107579;1254;110774;-61
2023/01/10 06:16:27;;;;;;;11.00;3.00;;;;;;;5.72;82.72;100859.63;107549;1254;109440;-60
2023/01/10 06:18:55;;;;;;;13.80;4.10;;;;;;;5.67;82.81;100866.54;107438;1256;107810;-60
2023/01/10 06:21:23;;;;;;;11.80;3.20;;;;;;;5.66;83.33;100868.58;107521;1256;97820;-61
2023/01/10 06:23:52;;;;;;;13.70;4.40;;;;;;;5.62;83.65;100868.80;107510;1253;97937;-60
2023/01/10 06:26:20;;;;;;;10.80;4.40;;;;;;;5.61;83.68;100865.67;107513;1254;111047;-61
2023/01/10 06:28:48;;;;;;;11.90;3.60;;;;;;;5.58;84.19;100869.60;107522;1254;109783;-61
2023/01/10 06:31:17;;;;;;;15.90;4.30;;;;;;;5.57;84.37;100871.48;107472;1254;108214;-60
2023/01/10 06:33:50;;;;;;;10.40;4.20;;;;;;;5.56;84.97;100875.27;107521;1254;97724;-61
2023/01/10 06:36:19;;;;;;;19.10;4.00;;;;;;;5.51;85.61;100882.88;107506;1254;98362;-59
2023/01/10 06:38:48;;;;;;;13.20;4.40;;;;;;;5.48;86.01;100886.41;107567;1254;110523;-59
2023/01/10 06:41:16;;;;;;;18.90;4.80;;;;;;;5.46;86.83;100888.69;107623;1254;109853;-60
2023/01/10 06:43:46;;;;;;;11.70;5.00;;;;;;;5.44;87.16;100883.12;107552;1253;108245;-60
2023/01/10 06:46:17;;;;;;;24.10;5.70;;;;;;;5.43;87.73;100890.85;107557;1254;97957;-60
2023/01/10 06:48:46;;;;;;;13.90;4.70;;;;;;;5.41;87.84;100887.10;107687;1255;97771;-61
2023/01/10 06:51:15;;;;;;;7.20;3.00;;;;;;;5.42;87.72;100886.31;107623;1256;112078;-59
2023/01/10 06:53:47;;;;;;;9.20;4.20;;;;;;;5.43;88.18;100887.64;107666;1256;108783;-60
2023/01/10 06:56:15;;;;;;;11.80;3.80;;;;;;;5.42;88.65;100881.84;107549;1255;109044;-60
2023/01/10 06:58:47;;;;;;;18.10;5.40;;;;;;;5.40;88.88;100887.33;107667;1254;97847;-60
2023/01/10 07:01:18;;;;;;;13.70;4.60;;;;;;;5.40;89.57;100888.02;107658;1254;97814;-60
2023/01/10 07:03:47;;;;;;;14.90;4.20;;;;;;;5.35;90.09;100888.00;107681;1254;110730;-60
2023/01/10 07:06:16;;;;;;;16.30;3.80;;;;;;;5.33;90.58;100883.48;107631;1254;108783;-61
2023/01/10 07:08:46;;;;;;;15.90;3.30;;;;;;;5.33;90.79;100880.63;107539;1254;108409;-61
2023/01/10 07:11:16;;;;;;;9.60;2.70;;;;;;;5.33;91.02;100879.55;107571;1254;97836;-60
2023/01/10 07:13:44;;;;;;;15.00;3.60;;;;;;;5.35;91.11;100884.10;107591;1253;97714;-60
2023/01/10 07:16:14;;;;;;;9.60;3.40;;;;;;;5.37;91.48;100885.23;107501;1254;111862;-59
2023/01/10 07:18:43;;;;;;;17.10;3.60;;;;;;;5.35;91.53;100886.38;107643;1254;109954;-62
2023/01/10 07:21:11;;;;;;;19.50;4.90;;;;;;;5.36;91.52;100892.23;107558;1254;107336;-60
2023/01/10 07:23:40;;;;;;;18.90;4.60;;;;;;;5.35;91.85;100893.19;107542;1256;97821;-60
2023/01/10 07:26:10;;;;;;;16.80;4.80;;;;;;;5.30;91.80;100893.49;107505;1256;97745;-60
2023/01/10 07:28:38;;;;;;;14.10;4.50;;;;;;;5.25;92.05;100887.54;107538;1254;111677;-61
2023/01/10 07:31:07;;;;;;;19.50;5.00;;;;;;;5.19;91.86;100891.14;107496;1254;109759;-62
2023/01/10 07:33:35;;;;;;;15.10;5.40;;;;;;;5.17;92.15;100893.25;107558;1254;107647;-60
2023/01/10 07:36:05;;;;;;;19.20;5.20;;;;;;;5.10;92.42;100891.17;107493;1253;97951;-59
2023/01/10 07:38:33;;;;;;;16.10;5.80;;;;;;;5.05;92.09;100897.00;107547;1254;97814;-60
2023/01/10 07:41:02;;;;;;;17.10;5.10;;;;;;;5.02;92.21;100886.70;107539;1253;112578;-61
2023/01/10 07:43:31;;;;;;;11.70;4.60;;;;;;;4.97;92.68;100884.86;107566;1254;110061;-60
2023/01/10 07:46:06;;;;;;;16.40;5.40;;;;;;;4.92;92.99;100884.11;107537;1254;108717;-60
2023/01/10 07:48:35;;;;;;;12.50;5.00;;;;;;;4.88;93.08;100882.61;107542;1254;97819;-60
2023/01/10 07:51:05;;;;;;;12.40;5.00;;;;;;;4.86;93.00;100886.67;107558;1253;97943;-61
2023/01/10 07:53:33;;;;;;;13.50;4.00;;;;;;;4.83;93.09;100889.27;107589;1252;111449;-60
2023/01/10 07:56:02;;;;;;;11.30;4.00;;;;;;;4.82;93.45;100889.00;107538;1254;109629;-60
2023/01/10 07:58:32;;;;;;;10.10;4.50;;;;;;;4.81;93.69;100885.89;107612;1254;108557;-59
2023/01/10 08:01:02;;;;;;;12.00;3.70;;;;;;;4.79;93.82;100886.04;107545;1254;97842;-59
2023/01/10 08:03:32;;;;;;;9.80;4.50;;;;;;;4.78;94.04;100891.41;107556;1257;97826;-61
2023/01/10 08:06:04;;;;;;;15.80;5.10;;;;;;;4.80;93.62;100893.41;107570;1254;112323;-60
2023/01/10 08:08:33;;;;;;;6.10;3.30;;;;;;;4.84;93.96;100890.35;107553;1255;109025;-60
2023/01/10 08:11:02;;;;;;;8.90;4.10;;;;;;;4.86;93.66;100890.41;107535;1253;109552;-64
2023/01/10 08:13:31;;;;;;;9.40;3.10;;;;;;;4.85;93.52;100896.09;107576;1256;97829;-60
2023/01/10 08:16:04;;;;;;;10.00;4.40;;;;;;;4.88;93.44;100895.63;107635;1254;97759;-59
2023/01/10 08:18:33;;;;;;;8.00;3.60;;;;;;;4.89;93.19;100896.63;107650;1254;112255;-60
2023/01/10 08:21:01;;;;;;;7.70;3.30;;;;;;;4.86;93.16;100897.85;107590;1254;109345;-61
2023/01/10 08:23:31;;;;;;;9.40;3.90;;;;;;;4.82;93.51;100894.91;107582;1256;108147;-60
2023/01/10 08:26:00;;;;;;;10.70;4.40;;;;;;;4.80;93.60;100898.55;107639;1253;97841;-61
2023/01/10 08:28:28;;;;;;;10.80;4.20;;;;;;;4.77;93.95;100897.67;107576;1252;97764;-59
2023/01/10 08:30:57;;;;;;;6.70;3.90;;;;;;;4.77;94.19;100908.88;107593;1253;111181;-61
2023/01/10 08:33:26;;;;;;;6.80;3.80;;;;;;;4.76;94.46;100903.98;107629;1254;109767;-60
2023/01/10 08:35:54;;;;;;;7.90;4.50;;;;;;;4.72;94.76;100908.34;107595;1254;107808;-60
2023/01/10 08:38:23;;;;;;;11.70;5.10;;;;;;;4.70;95.00;100910.20;107552;1253;97834;-58
2023/01/10 08:40:51;;;;;;;6.80;4.60;;;;;;;4.71;95.15;100913.52;107547;1253;97739;-59
2023/01/10 08:43:19;;;;;;;8.10;4.80;;;;;;;4.69;95.02;100915.77;107581;1254;111725;-59
2023/01/10 08:45:49;;;;;;;10.80;4.80;;;;;;;4.66;94.99;100919.17;107642;1254;109816;-59
2023/01/10 08:48:17;;;;;;;8.90;4.00;;;;;;;4.59;95.08;100921.16;107536;1254;108736;-60
2023/01/10 08:50:45;;;;;;;5.30;3.70;;;;;;;4.55;95.21;100923.37;107605;1253;97877;-60
2023/01/10 08:53:14;;;;;;;6.10;3.60;;;;;;;4.55;95.46;100924.80;107529;1254;97848;-59
2023/01/10 08:55:42;;;;;;;5.90;3.50;;;;;;;4.52;95.38;100925.83;107597;1254;111838;-61
2023/01/10 08:58:10;;;;;;;4.70;3.20;;;;;;;4.53;95.30;100927.35;107541;1253;109975;-61
2023/01/10 09:00:39;;;;;;;5.00;2.80;;;;;;;4.53;94.94;100927.56;107559;1256;107444;-61
2023/01/10 09:03:08;;;;;;;8.60;3.40;;;;;;;4.55;94.70;100925.69;107553;1256;97867;-60
2023/01/10 09:05:36;;;;;;;7.30;2.80;;;;;;;4.58;94.14;100925.35;107588;1254;97711;-60
2023/01/10 09:08:05;;;;;;;5.30;3.10;;;;;;;4.59;93.85;100923.48;107574;1254;111742;-62
2023/01/10 09:10:34;;;;;;;4.50;2.60;;;;;;;4.59;93.31;100917.61;107555;1254;109648;-60
2023/01/10 09:13:03;;;;;;;3.60;2.60;;;;;;;4.59;93.22;100916.55;107598;1252;108752;-60
2023/01/10 09:15:35;;;;;;;5.10;2.80;;;;;;;4.59;93.01;100916.23;107562;1254;97937;-60
2023/01/10 09:18:05;;;;;;;6.00;3.20;;;;;;;4.58;92.99;100916.44;107577;1254;98483;-62
2023/01/10 09:20:36;;;;;;;5.20;3.00;;;;;;;4.58;92.69;100906.69;107596;1254;112074;-61
2023/01/10 09:23:10;;;;;;;6.10;3.20;;;;;;;4.59;92.57;100913.21;107587;1254;109958;-60
2023/01/10 09:25:38;;;;;;;6.60;3.40;;;;;;;4.58;92.50;100913.09;107541;1254;108559;-59
2023/01/10 09:28:07;;;;;;;6.10;3.80;;;;;;;4.52;92.83;100910.59;107514;1254;97816;-60
2023/01/10 09:30:36;;;;;;;5.70;3.50;;;;;;;4.47;93.41;100907.14;107571;1253;97844;-60
2023/01/10 09:33:05;;;;;;;4.90;3.20;;;;;;;4.43;93.39;100907.25;107486;1254;112715;-59
2023/01/10 09:35:36;;;;;;;5.60;3.00;;;;;;;4.40;93.76;100909.52;107616;1254;109620;-60
2023/01/10 09:38:08;;;;;;;5.20;3.40;;;;;;;4.39;94.24;100907.63;107540;1254;107779;-60
2023/01/10 09:40:55;;;;;;;4.00;3.20;;;;;;;4.39;94.52;100902.86;107532;1254;97850;-61
2023/01/10 09:43:44;;;;;;;3.90;2.80;;;;;;;4.37;94.79;100899.56;107608;1252;97775;-60
2023/01/10 09:46:30;;;;;;;4.00;2.50;;;;;;;4.40;94.85;100896.73;107597;1254;112471;-60
2023/01/10 09:48:58;;;;;;;3.50;2.10;;;;;;;4.41;94.87;100897.20;107590;1254;110247;-60
2023/01/10 09:51:46;;;;;;;7.10;2.90;;;;;;;4.45;94.58;100898.75;107593;1254;107382;-61
2023/01/10 09:54:40;;;;;;;4.00;3.00;;;;;;;4.41;94.86;100898.65;107518;1256;97957;-61
2023/01/10 09:57:15;;;;;;;;;;;;;;;4.39;94.87;100894.30;107597;1254;97827;-60
2023/01/10 09:59:47;;;;;;;6.00;2.90;;;;;;;4.36;95.15;100885.46;107574;1254;112141;-60
2023/01/10 10:02:25;;;;;;;6.00;2.80;;;;;;;4.32;95.76;100883.56;107555;1252;110097;-61
2023/01/10 10:05:06;;;;;;;5.60;3.40;;;;;;;4.30;95.94;100882.94;107567;1252;108866;-60
2023/01/10 10:07:35;;;;;;;3.10;2.30;;;;;;;4.30;95.76;100878.38;107577;1254;98399;-62
2023/01/10 10:10:10;;;;;;;2.80;2.30;;;;;;;4.30;95.78;100874.77;107583;1256;97742;-59
2023/01/10 10:13:17;;;;;;;5.60;2.50;;;;;;;4.34;95.57;100880.77;107600;1254;112179;-60
2023/01/10 10:16:24;;;;;;;4.60;2.90;;;;;;;4.39;94.78;100885.95;107542;1254;109650;-59
2023/01/10 10:19:08;;;;;;;6.50;3.60;;;;;;;4.42;94.52;100894.67;107590;1254;108280;-59
2023/01/10 10:21:56;;;;;;;6.00;3.40;;;;;;;4.46;94.21;100894.98;107552;1253;97910;-59
2023/01/10 10:24:48;;;;;;;4.40;3.00;;;;;;;4.41;93.94;100897.40;107581;1252;97947;-60
2023/01/10 10:27:22;;;;;;;5.00;3.30;;;;;;;4.40;93.99;100900.80;107554;1254;110927;-60
2023/01/10 10:30:18;;;;;;;6.70;3.20;;;;;;;4.40;94.15;100906.52;107549;1253;109831;-60
2023/01/10 10:33:10;;;;;;;3.90;2.60;;;;;;;4.40;93.91;100909.53;107579;1253;109297;-60
2023/01/10 10:36:10;;;;;;;3.90;2.70;;;;;;;4.41;93.95;100905.75;107570;1252;97886;-60
2023/01/10 10:38:45;;;;;;;4.20;2.50;;;;;;;4.41;93.81;100902.42;107543;1254;97844;-60
2023/01/10 10:41:32;;;;;;;4.00;2.60;;;;;;;4.38;93.85;100898.45;107607;1252;111897;-60
2023/01/10 10:44:21;;;;;;;5.60;2.70;;;;;;;4.37;94.17;100897.23;107074;1253;714911;-60
2023/01/10 10:46:50;;;;;;;4.80;2.70;;;;;;;4.34;94.40;100890.16;107641;1254;108273;-61
2023/01/10 10:49:30;;;;;;;6.70;2.80;;;;;;;4.33;94.78;100898.95;107568;1254;97721;-60
2023/01/10 10:52:02;;;;;;;4.10;2.80;;;;;;;4.34;94.94;100903.84;107627;1256;97733;-61
2023/01/10 10:54:33;;;;;;;3.70;2.30;;;;;;;4.38;94.66;100899.88;107604;1253;112976;-61
2023/01/10 10:57:01;;;;;;;5.50;2.80;;;;;;;4.40;94.56;100899.96;107588;1253;108385;-60
2023/01/10 10:59:29;;;;;;;6.30;2.90;;;;;;;4.42;94.35;100895.78;107526;1256;108502;-61
2023/01/10 11:01:59;;;;;;;5.40;3.10;;;;;;;4.42;94.30;100896.12;107542;1254;98035;-59
2023/01/10 11:04:30;;;;;;;5.40;3.20;;;;;;;4.41;94.15;100891.35;107602;1253;97841;-59
2023/01/10 11:06:59;;;;;;;8.80;3.50;;;;;;;4.43;94.27;100889.15;107570;1254;111985;-59
2023/01/10 11:11:58;;;;;;;4.80;3.30;;;;;;;4.45;94.07;100892.58;107577;1254;108131;-60
2023/01/10 11:14:44;;;;;;;5.50;3.40;;;;;;;4.44;94.22;100892.11;107540;1254;97793;-61
2023/01/10 11:17:21;;;;;;;9.00;3.60;;;;;;;4.42;94.65;100895.95;107589;1254;97708;-61
2023/01/10 11:20:01;;;;;;;4.80;3.40;;;;;;;4.38;95.02;100894.74;107556;1254;113027;-61
2023/01/10 11:22:38;;;;;;;6.60;3.90;;;;;;;4.35;95.37;100895.77;107538;1253;109662;-60
2023/01/10 11:25:17;;;;;;;11.10;3.40;;;;;;;4.32;95.97;100899.38;107519;1254;108249;-61
2023/01/10 11:27:50;;;;;;;6.00;3.70;;;;;;;4.28;95.87;100899.02;107547;1254;97848;-61
2023/01/10 11:30:23;;;;;;;7.30;4.00;;;;;;;4.29;96.24;100889.95;107571;1254;97726;-61
2023/01/10 11:32:55;;;;;;;8.50;4.20;;;;;;;4.28;96.64;100891.62;107559;1253;111826;-61
2023/01/10 11:35:36;;;;;;;5.60;3.50;;;;;;;4.27;96.58;100895.23;107593;1254;110152;-60
2023/01/10 11:38:20;;;;;;;5.10;3.80;;;;;;;4.27;97.05;100888.45;107581;1254;108112;-60
2023/01/10 11:41:21;;;;;;;;;;;;;;;4.25;97.12;100885.77;107594;1254;98536;-62
2023/01/10 11:43:50;;;;;;;6.60;3.60;;;;;;;4.26;97.52;100881.98;107233;1254;97752;-61
2023/01/10 11:46:24;;;;;;;8.90;4.10;;;;;;;4.28;97.76;100883.80;107443;1253;112639;-60
2023/01/10 11:49:13;;;;;;;5.30;3.80;;;;;;;4.32;97.80;100881.77;107445;1253;110412;-61
2023/01/10 11:51:49;;;;;;;5.60;3.70;;;;;;;4.36;97.77;100877.78;107463;1254;107751;-60
2023/01/10 11:54:23;;;;;;;6.70;3.00;;;;;;;4.41;97.83;100877.69;107610;1254;98554;-60